Time;durP1;ratioP1;P1;durP2;ratioP2;P2;SDS_P1;SDS_P2;PMS_P1;PMS_P2;Temp;Humidity;BMP_temperature;BMP_pressure;BME280_temperature;BME280_humidity;BME280_pressure;Samples;Min_cycle;Max_cycle;Signal;HPM_P1;HPM_P2
2022/02/18 00:01:36;;;;;;;;;;;;;;;28.82;68.32;100835.28;4971335;28;70641;-41
2022/02/18 00:04:06;;;;;;;;;;;;;;;28.88;68.01;100833.63;4975811;28;66971;-43
2022/02/18 00:06:36;;;;;;;;;;;;;;;28.88;68.52;100839.84;4977756;28;69772;-42
2022/02/18 00:09:06;;;;;;;;;;;;;;;28.94;68.11;100844.41;4980077;27;66426;-41
2022/02/18 00:11:35;;;;;;;;;;;;;;;28.87;66.45;100827.38;4980920;28;69866;-42
2022/02/18 00:14:05;;;;;;;;;;;;;;;29.01;66.52;100849.00;4970631;28;66789;-42
2022/02/18 00:16:35;;;;;;;;;;;;;;;29.06;66.38;100860.00;4976238;28;70240;-40
2022/02/18 00:19:04;;;;;;;;;;;;;;;29.11;66.62;100854.81;4976267;28;66741;-40
2022/02/18 00:21:35;;;;;;;;;;;;;;;29.15;66.58;100856.06;4977861;28;70341;-40
2022/02/18 00:24:05;;;;;;;;;;;;;;;29.26;65.46;100858.13;4978095;28;66420;-38
2022/02/18 00:26:35;;;;;;;;;;;;;;;29.33;64.11;100853.53;4977959;28;69570;-38
2022/02/18 00:29:05;;;;;;;;;;;;;;;29.38;64.91;100855.63;4979006;28;66843;-38
2022/02/18 00:31:34;;;;;;;;;;;;;;;29.42;65.60;100864.13;4979093;28;70586;-37
2022/02/18 00:34:07;;;;;;;;;;;;;;;29.46;65.14;100865.38;4976887;28;65383;-38
2022/02/18 00:36:38;;;;;;;;;;;;;;;29.49;65.08;100868.47;4954134;28;70401;-38
2022/02/18 00:39:07;;;;;;;;;;;;;;;29.51;64.57;100871.81;4968759;28;66426;-38
2022/02/18 00:41:38;;;;;;;;;;;;;;;29.55;64.94;100869.50;4973195;28;70351;-38
2022/02/18 00:44:11;;;;;;;;;;;;;;;29.58;64.20;100866.38;4977027;28;66354;-38
2022/02/18 00:46:42;;;;;;;;;;;;;;;29.59;63.88;100874.28;4975180;28;69671;-39
2022/02/18 00:49:12;;;;;;;;;;;;;;;29.61;63.90;100876.75;4978616;28;66412;-39
2022/02/18 00:51:42;;;;;;;;;;;;;;;29.63;63.50;100869.31;4969128;28;70464;-38
2022/02/18 00:54:12;;;;;;;;;;;;;;;29.65;63.75;100874.53;4970664;28;67297;-39
2022/02/18 00:56:42;;;;;;;;;;;;;;;29.67;63.68;100884.09;4976651;28;70117;-40
2022/02/18 00:59:11;;;;;;;;;;;;;;;29.69;63.76;100890.09;4976279;28;66744;-38
2022/02/18 01:01:41;;;;;;;;;;;;;;;29.71;63.48;100888.00;4977623;28;68963;-39
2022/02/18 01:04:12;;;;;;;;;;;;;;;29.72;63.41;100889.66;4980838;28;66363;-39
2022/02/18 01:06:43;;;;;;;;;;;;;;;29.73;63.35;100896.75;4977003;28;70352;-40
2022/02/18 01:09:13;;;;;;;;;;;;;;;29.76;63.02;100904.44;4961612;28;65802;-39
2022/02/18 01:11:44;;;;;;;;;;;;;;;29.77;62.48;100900.66;4955379;28;70357;-38
2022/02/18 01:14:14;;;;;;;;;;;;;;;29.79;62.57;100906.72;4977799;27;66834;-38
2022/02/18 01:16:44;;;;;;;;;;;;;;;29.80;62.46;100908.34;4958724;28;69772;-39
2022/02/18 01:19:15;;;;;;;;;;;;;;;29.83;62.17;100907.94;4978846;28;67035;-39
2022/02/18 01:21:44;;;;;;;;;;;;;;;29.83;61.96;100924.16;4968580;28;69738;-38
2022/02/18 01:24:15;;;;;;;;;;;;;;;29.87;61.76;100929.16;4975555;28;66284;-38
2022/02/18 01:26:45;;;;;;;;;;;;;;;29.88;61.62;100926.22;4964215;28;70379;-38
2022/02/18 01:29:14;;;;;;;;;;;;;;;29.91;61.05;100927.69;4974497;28;66853;-39
2022/02/18 01:31:45;;;;;;;;;;;;;;;29.93;60.83;100944.53;4976949;28;70595;-39
2022/02/18 01:34:15;;;;;;;;;;;;;;;29.92;61.14;100938.31;4975357;28;68202;-43
2022/02/18 01:36:45;;;;;;;;;;;;;;;29.94;60.86;100941.59;4977852;28;70239;-39
2022/02/18 01:39:15;;;;;;;;;;;;;;;29.96;60.48;100944.09;4967838;28;67099;-38
2022/02/18 01:41:46;;;;;;;;;;;;;;;29.98;60.41;100953.69;4974087;28;70251;-39
2022/02/18 01:44:31;;;;;;;;;;;;;;;30.00;60.20;100956.16;4979629;27;66504;-39
2022/02/18 01:47:01;;;;;;;;;;;;;;;30.02;60.57;100954.06;4980795;28;69402;-38
2022/02/18 01:49:31;;;;;;;;;;;;;;;30.04;60.23;100957.41;4980544;28;66537;-39
2022/02/18 01:52:02;;;;;;;;;;;;;;;30.05;59.74;100956.34;4969063;28;69383;-39
2022/02/18 01:54:32;;;;;;;;;;;;;;;30.07;59.71;100962.38;4977718;28;65568;-39
2022/02/18 01:57:03;;;;;;;;;;;;;;;30.09;59.43;100959.44;4971313;28;70360;-48
2022/02/18 01:59:34;;;;;;;;;;;;;;;30.12;59.45;100950.94;4975640;28;65345;-38
2022/02/18 02:02:04;;;;;;;;;;;;;;;30.14;59.32;100951.53;4968509;28;70098;-37
2022/02/18 02:04:34;;;;;;;;;;;;;;;30.15;59.38;100945.91;4971609;28;66660;-40
2022/02/18 02:07:05;;;;;;;;;;;;;;;30.17;59.01;100948.38;4979995;28;70078;-39
2022/02/18 02:09:36;;;;;;;;;;;;;;;30.19;59.41;100941.72;4966800;28;66552;-38
2022/02/18 02:12:06;;;;;;;;;;;;;;;30.22;59.20;100938.63;4971613;28;70113;-38
2022/02/18 02:14:42;;;;;;;;;;;;;;;30.23;58.66;100945.72;4976314;28;66290;-39
2022/02/18 02:17:12;;;;;;;;;;;;;;;30.25;58.96;100949.00;4974386;28;69970;-38
2022/02/18 02:19:45;;;;;;;;;;;;;;;30.28;58.93;100953.16;4967666;28;66586;-39
2022/02/18 02:22:16;;;;;;;;;;;;;;;30.30;58.66;100955.66;4965644;27;69497;-39
2022/02/18 02:24:47;;;;;;;;;;;;;;;30.33;58.22;100949.81;4939990;28;66518;-39
2022/02/18 02:27:18;;;;;;;;;;;;;;;30.34;58.52;100951.47;4971527;28;70299;-39
2022/02/18 02:29:49;;;;;;;;;;;;;;;30.36;58.21;100960.22;4959358;28;65907;-38
2022/02/18 02:32:20;;;;;;;;;;;;;;;30.38;57.99;100955.44;4990145;28;70413;-38
2022/02/18 02:34:52;;;;;;;;;;;;;;;30.41;58.34;100957.69;4967244;28;66739;-38
2022/02/18 02:37:23;;;;;;;;;;;;;;;30.42;58.51;100953.94;4984383;28;69232;-39
2022/02/18 02:39:53;;;;;;;;;;;;;;;30.44;57.88;100946.44;4976833;28;66868;-38
2022/02/18 02:42:30;;;;;;;;;;;;;;;30.46;58.38;100942.47;4961534;28;70502;-38
2022/02/18 02:45:07;;;;;;;;;;;;;;;30.48;58.01;100945.81;4964166;28;66105;-39
2022/02/18 02:47:38;;;;;;;;;;;;;;;30.50;57.90;100953.69;4973184;28;69878;-38
2022/02/18 02:50:23;;;;;;;;;;;;;;;30.54;58.12;100951.41;4967575;28;65482;-38
2022/02/18 02:52:59;;;;;;;;;;;;;;;30.56;57.96;100941.16;4967826;28;69223;-38
2022/02/18 02:55:29;;;;;;;;;;;;;;;30.58;57.69;100945.31;4976300;28;66692;-38
2022/02/18 02:57:59;;;;;;;;;;;;;;;30.61;57.67;100941.34;4961873;28;70532;-39
2022/02/18 03:00:30;;;;;;;;;;;;;;;30.62;57.39;100943.84;4971339;28;66517;-37
2022/02/18 03:03:00;;;;;;;;;;;;;;;30.65;57.46;100943.41;4976039;28;69907;-38
2022/02/18 03:05:49;;;;;;;;;;;;;;;30.68;57.00;100948.41;4954678;28;66260;-39
2022/02/18 03:08:20;;;;;;;;;;;;;;;30.71;57.42;100945.25;4969870;28;69615;-39
2022/02/18 03:13:41;;;;;;;;;;;;;;;30.76;56.85;100938.34;4962387;28;69219;-38
2022/02/18 03:16:12;;;;;;;;;;;;;;;30.79;57.48;100937.94;4960832;28;66427;-39
2022/02/18 03:18:47;;;;;;;;;;;;;;;30.80;57.10;100917.94;4978589;28;70150;-39
2022/02/18 03:21:17;;;;;;;;;;;;;;;30.83;56.98;100931.03;4964950;28;65152;-38
2022/02/18 03:23:47;;;;;;;;;;;;;;;30.86;56.74;100933.31;4962466;28;69768;-39
2022/02/18 03:26:20;;;;;;;;;;;;;;;30.87;56.77;100930.41;4974749;28;65892;-38
2022/02/18 03:29:01;;;;;;;;;;;;;;;30.90;56.62;100927.25;4977326;28;69336;-38
2022/02/18 03:31:57;;;;;;;;;;;;;;;30.93;56.83;100923.28;4972339;28;66326;-38
2022/02/18 03:34:29;;;;;;;;;;;;;;;30.96;56.21;100920.13;4977267;28;69489;-39
2022/02/18 03:36:59;;;;;;;;;;;;;;;30.98;56.74;100915.31;4978520;27;67056;-39
2022/02/18 03:39:31;;;;;;;;;;;;;;;31.01;56.55;100914.88;4976464;28;70213;-39
2022/02/18 03:42:02;;;;;;;;;;;;;;;31.04;56.13;100902.78;4960393;28;65759;-38
2022/02/18 03:44:35;;;;;;;;;;;;;;;31.06;56.67;100904.19;4976652;28;71109;-39
2022/02/18 03:47:08;;;;;;;;;;;;;;;31.08;56.56;100904.78;4980098;28;66474;-38
2022/02/18 03:49:39;;;;;;;;;;;;;;;31.11;56.14;100901.63;4979364;28;70213;-38
2022/02/18 03:52:12;;;;;;;;;;;;;;;31.13;56.13;100890.59;4977939;28;67050;-39
2022/02/18 03:54:42;;;;;;;;;;;;;;;31.15;56.23;100889.31;4977309;28;70212;-40
2022/02/18 03:57:12;;;;;;;;;;;;;;;31.16;56.41;100885.56;4960694;28;66024;-38
2022/02/18 03:59:42;;;;;;;;;;;;;;;31.19;56.22;100875.34;4962443;28;69768;-38
2022/02/18 04:02:12;;;;;;;;;;;;;;;31.21;55.90;100882.19;4972277;28;66605;-38
2022/02/18 04:04:42;;;;;;;;;;;;;;;31.22;55.80;100878.41;4960623;28;70278;-40
2022/02/18 04:07:34;;;;;;;;;;;;;;;31.25;55.68;100877.13;4973122;28;66139;-41
2022/02/18 04:10:05;;;;;;;;;;;;;;;31.26;55.51;100873.38;4982344;28;69919;-39
2022/02/18 04:12:36;;;;;;;;;;;;;;;31.29;55.94;100864.81;4964032;28;66167;-39
2022/02/18 04:15:17;;;;;;;;;;;;;;;31.31;55.71;100855.38;4975893;28;69985;-38
2022/02/18 04:17:47;;;;;;;;;;;;;;;31.33;56.06;100853.28;4978327;28;66565;-38
2022/02/18 04:20:33;;;;;;;;;;;;;;;31.36;55.90;100841.19;4977538;28;69790;-38
2022/02/18 04:23:34;;;;;;;;;;;;;;;31.37;55.74;100843.69;4977933;28;66774;-39
2022/02/18 04:26:03;;;;;;;;;;;;;;;31.39;55.32;100835.34;4990317;27;69285;-40
2022/02/18 04:28:34;;;;;;;;;;;;;;;31.41;55.23;100838.66;4977818;28;66065;-38
2022/02/18 04:31:03;;;;;;;;;;;;;;;31.42;55.81;100829.44;4978964;28;69776;-38
2022/02/18 04:33:33;;;;;;;;;;;;;;;31.44;55.23;100816.50;4978170;28;66967;-38
2022/02/18 04:36:03;;;;;;;;;;;;;;;31.45;55.07;100807.31;4962017;28;70352;-38
2022/02/18 04:38:33;;;;;;;;;;;;;;;31.47;54.94;100802.50;4980619;27;66725;-38
2022/02/18 04:41:02;;;;;;;;;;;;;;;31.50;54.95;100809.34;4974152;28;69867;-39
2022/02/18 04:43:32;;;;;;;;;;;;;;;31.52;54.93;100808.06;4977891;28;66010;-39
2022/02/18 04:46:02;;;;;;;;;;;;;;;31.53;55.15;100798.88;4977407;28;70420;-38
2022/02/18 04:48:31;;;;;;;;;;;;;;;31.55;55.02;100796.78;4977867;28;65982;-40
2022/02/18 04:51:01;;;;;;;;;;;;;;;31.57;54.85;100799.28;4978035;28;69866;-39
2022/02/18 04:53:37;;;;;;;;;;;;;;;31.58;54.89;100785.47;4978793;28;66226;-38
2022/02/18 04:56:09;;;;;;;;;;;;;;;31.60;54.67;100777.94;4976088;28;69856;-39
2022/02/18 04:58:39;;;;;;;;;;;;;;;31.63;54.94;100770.41;4977397;28;65301;-39
2022/02/18 05:01:09;;;;;;;;;;;;;;;31.64;54.65;100772.06;4976411;28;69338;-39
2022/02/18 05:03:40;;;;;;;;;;;;;;;31.67;54.46;100771.59;4978360;28;67146;-39
2022/02/18 05:06:10;;;;;;;;;;;;;;;31.69;54.27;100764.09;4978377;28;69541;-39
2022/02/18 05:08:40;;;;;;;;;;;;;;;31.71;54.35;100768.22;4980014;27;65942;-39
2022/02/18 05:11:10;;;;;;;;;;;;;;;31.74;54.51;100756.09;4983713;28;70275;-39
2022/02/18 05:13:40;;;;;;;;;;;;;;;31.76;54.04;100753.94;4983375;28;66794;-38
2022/02/18 05:16:10;;;;;;;;;;;;;;;31.74;54.38;100737.09;4964354;28;69346;-38
2022/02/18 05:18:39;;;;;;;;;;;;;;;31.80;54.22;100733.47;4967880;27;66577;-38
2022/02/18 05:21:10;;;;;;;;;;;;;;;31.81;54.17;100740.53;5005081;28;69012;-40
2022/02/18 05:23:40;;;;;;;;;;;;;;;31.84;54.04;100731.94;5019646;28;66636;-39
2022/02/18 05:26:10;;;;;;;;;;;;;;;31.85;54.41;100730.91;4961266;28;69874;-39
2022/02/18 05:28:40;;;;;;;;;;;;;;;31.85;54.35;100725.47;4960397;28;66238;-39
2022/02/18 05:31:10;;;;;;;;;;;;;;;31.88;53.79;100724.19;4988355;28;70065;-44
2022/02/18 05:33:40;;;;;;;;;;;;;;;31.89;54.09;100714.97;4969227;28;66926;-39
2022/02/18 05:36:10;;;;;;;;;;;;;;;31.91;53.67;100721.00;4977057;28;69182;-38
2022/02/18 05:38:43;;;;;;;;;;;;;;;31.79;54.16;100688.44;4974738;28;67198;-39
2022/02/18 05:41:21;;;;;;;;;;;;;;;31.95;54.17;100714.91;4977072;28;70592;-39
2022/02/18 05:43:51;;;;;;;;;;;;;;;31.97;54.14;100707.38;5043447;28;64993;-40
2022/02/18 05:46:22;;;;;;;;;;;;;;;31.98;53.89;100698.19;4976305;28;70345;-39
2022/02/18 05:48:52;;;;;;;;;;;;;;;31.99;54.16;100691.69;4978639;28;65268;-39
2022/02/18 05:51:21;;;;;;;;;;;;;;;32.01;53.71;100689.56;4978282;28;69740;-39
2022/02/18 05:53:51;;;;;;;;;;;;;;;32.03;53.85;100686.63;4963874;28;65729;-39
2022/02/18 05:56:21;;;;;;;;;;;;;;;32.04;53.90;100686.41;4979350;27;70387;-39
2022/02/18 05:58:51;;;;;;;;;;;;;;;32.05;53.64;100674.47;4979884;28;66125;-39
2022/02/18 06:01:21;;;;;;;;;;;;;;;32.07;53.90;100663.41;4975243;28;69278;-38
2022/02/18 06:03:50;;;;;;;;;;;;;;;32.08;53.71;100659.63;4977175;28;66410;-39
2022/02/18 06:06:20;;;;;;;;;;;;;;;32.11;53.69;100655.59;4976012;28;70446;-38
2022/02/18 06:08:49;;;;;;;;;;;;;;;32.13;53.82;100662.47;4975665;28;66258;-38
2022/02/18 06:11:21;;;;;;;;;;;;;;;32.16;53.79;100653.03;4977832;28;70291;-39
2022/02/18 06:13:51;;;;;;;;;;;;;;;32.19;53.93;100636.28;4977507;28;64998;-39
2022/02/18 06:16:21;;;;;;;;;;;;;;;32.20;53.50;100630.59;4976558;28;70526;-39
2022/02/18 06:18:51;;;;;;;;;;;;;;;32.23;53.53;100634.72;4977907;28;65319;-39
2022/02/18 06:21:20;;;;;;;;;;;;;;;32.26;53.64;100628.81;4975582;28;69262;-39
2022/02/18 06:23:54;;;;;;;;;;;;;;;32.29;53.49;100636.53;4979117;27;66180;-40
2022/02/18 06:26:24;;;;;;;;;;;;;;;32.30;53.58;100632.72;4975832;28;70352;-40
2022/02/18 06:28:54;;;;;;;;;;;;;;;32.32;53.48;100633.34;4964396;28;66976;-44
2022/02/18 06:31:25;;;;;;;;;;;;;;;32.35;53.19;100626.59;4978268;28;70899;-39
2022/02/18 06:33:56;;;;;;;;;;;;;;;32.39;53.20;100627.78;4975827;28;65813;-39
2022/02/18 06:36:26;;;;;;;;;;;;;;;32.40;53.28;100622.13;4976367;28;70389;-39
2022/02/18 06:38:56;;;;;;;;;;;;;;;32.43;53.41;100620.78;4962048;28;66109;-39
2022/02/18 06:41:26;;;;;;;;;;;;;;;32.46;53.34;100623.09;4976700;28;70580;-39
2022/02/18 06:43:57;;;;;;;;;;;;;;;32.49;53.20;100612.56;4990112;27;67228;-39
2022/02/18 06:46:28;;;;;;;;;;;;;;;32.52;53.42;100605.84;4995316;27;69945;-39
2022/02/18 06:48:59;;;;;;;;;;;;;;;32.56;53.28;100606.19;4996248;27;66955;-40
2022/02/18 06:51:30;;;;;;;;;;;;;;;32.58;53.22;100604.06;4994785;28;70564;-40
2022/02/18 06:54:00;;;;;;;;;;;;;;;32.60;53.05;100597.34;4983388;28;66465;-40
2022/02/18 06:56:51;;;;;;;;;;;;;;;32.65;53.11;100596.59;4978488;28;70626;-42
2022/02/18 06:59:22;;;;;;;;;;;;;;;32.68;53.19;100593.41;4976149;28;65782;-39
2022/02/18 07:01:54;;;;;;;;;;;;;;;32.73;53.13;100590.78;4977201;28;70110;-46
2022/02/18 07:04:25;;;;;;;;;;;;;;;32.76;52.89;100581.34;4985458;28;66536;-39
2022/02/18 07:06:57;;;;;;;;;;;;;;;32.80;52.87;100588.78;4978286;28;69884;-39
2022/02/18 07:09:27;;;;;;;;;;;;;;;32.84;53.08;100581.78;4979533;28;66255;-40
2022/02/18 07:11:57;;;;;;;;;;;;;;;32.88;52.90;100576.72;4973952;28;70794;-40
2022/02/18 07:14:28;;;;;;;;;;;;;;;32.89;52.65;100571.03;4976010;28;65839;-40
2022/02/18 07:16:59;;;;;;;;;;;;;;;32.94;52.73;100576.56;4974987;28;70319;-39
2022/02/18 07:19:30;;;;;;;;;;;;;;;32.98;52.57;100567.94;5024641;27;67121;-40
2022/02/18 07:22:00;;;;;;;;;;;;;;;33.02;52.53;100561.00;5010527;27;69886;-39
2022/02/18 07:24:30;;;;;;;;;;;;;;;33.07;52.55;100563.78;4979473;28;66864;-39
2022/02/18 07:27:01;;;;;;;;;;;;;;;33.10;52.50;100561.41;4979681;28;69506;-40
2022/02/18 07:29:31;;;;;;;;;;;;;;;33.16;52.42;100567.78;4978882;28;65396;-39
2022/02/18 07:32:02;;;;;;;;;;;;;;;33.19;52.37;100561.84;4980275;28;69860;-39
2022/02/18 07:34:32;;;;;;;;;;;;;;;33.24;52.15;100559.22;4979338;28;66685;-40
2022/02/18 07:37:02;;;;;;;;;;;;;;;33.29;52.22;100559.31;4969066;28;69752;-38
2022/02/18 07:39:32;;;;;;;;;;;;;;;33.33;52.00;100557.75;4977267;28;66190;-38
2022/02/18 07:42:02;;;;;;;;;;;;;;;33.38;52.01;100548.88;4981048;28;69435;-39
2022/02/18 07:44:32;;;;;;;;;;;;;;;33.41;52.01;100544.84;4945358;28;65777;-39
2022/02/18 07:47:03;;;;;;;;;;;;;;;33.46;51.79;100543.03;4969442;28;70646;-39
2022/02/18 07:49:48;;;;;;;;;;;;;;;33.50;51.82;100546.06;4979002;28;66668;-39
2022/02/18 07:52:20;;;;;;;;;;;;;;;33.53;51.86;100540.16;4976625;28;70599;-39
2022/02/18 07:54:50;;;;;;;;;;;;;;;33.56;51.61;100548.66;4979869;27;66627;-39
2022/02/18 07:57:21;;;;;;;;;;;;;;;33.60;51.60;100546.28;4977680;28;70782;-39
2022/02/18 07:59:51;;;;;;;;;;;;;;;33.65;51.48;100543.63;4965994;28;66838;-40
2022/02/18 08:02:22;;;;;;;;;;;;;;;33.69;51.51;100533.09;4964209;28;70818;-39
2022/02/18 08:04:53;;;;;;;;;;;;;;;33.72;51.48;100533.41;4966482;28;66845;-39
2022/02/18 08:07:23;;;;;;;;;;;;;;;33.75;51.05;100532.91;4981712;27;70070;-39
2022/02/18 08:09:53;;;;;;;;;;;;;;;33.79;51.36;100544.13;4974518;28;66758;-39
2022/02/18 08:12:24;;;;;;;;;;;;;;;33.82;51.12;100532.72;4976942;28;69646;-39
2022/02/18 08:14:55;;;;;;;;;;;;;;;33.85;51.14;100532.25;4979252;27;66889;-38
2022/02/18 08:17:32;;;;;;;;;;;;;;;33.89;51.05;100532.56;4977875;28;69247;-39
2022/02/18 08:20:03;;;;;;;;;;;;;;;33.90;50.98;100529.59;4977923;28;65982;-39
2022/02/18 08:22:33;;;;;;;;;;;;;;;33.94;50.92;100529.94;4969486;28;69197;-40
2022/02/18 08:25:04;;;;;;;;;;;;;;;33.97;50.84;100537.59;4961152;28;66840;-39
2022/02/18 08:27:35;;;;;;;;;;;;;;;34.01;50.91;100530.56;4975970;28;70633;-39
2022/02/18 08:30:06;;;;;;;;;;;;;;;34.05;50.94;100539.94;4977104;28;66732;-38
2022/02/18 08:32:37;;;;;;;;;;;;;;;34.09;50.64;100534.81;4975351;28;69534;-39
2022/02/18 08:35:08;;;;;;;;;;;;;;;34.12;50.51;100540.56;4977651;28;66414;-38
2022/02/18 08:37:38;;;;;;;;;;;;;;;34.15;50.10;100531.06;4977476;28;70661;-39
2022/02/18 08:40:08;;;;;;;;;;;;;;;34.18;50.31;100534.09;4976825;28;65937;-39
2022/02/18 08:42:38;;;;;;;;;;;;;;;34.22;50.38;100535.25;4978253;28;70324;-39
2022/02/18 08:45:07;;;;;;;;;;;;;;;34.24;50.33;100541.28;4976555;28;66233;-39
2022/02/18 08:47:38;;;;;;;;;;;;;;;34.28;50.08;100541.59;4963587;28;70895;-39
2022/02/18 08:50:12;;;;;;;;;;;;;;;34.30;50.05;100536.72;4978111;28;66397;-40
2022/02/18 08:52:43;;;;;;;;;;;;;;;34.34;50.15;100550.66;4976395;28;70204;-39
2022/02/18 08:55:14;;;;;;;;;;;;;;;34.36;50.25;100553.97;4988110;28;66322;-37
2022/02/18 08:57:46;;;;;;;;;;;;;;;34.37;50.04;100555.59;4966888;28;69221;-39
2022/02/18 09:00:19;;;;;;;;;;;;;;;34.40;50.02;100563.25;4975682;27;66104;-38
2022/02/18 09:02:49;;;;;;;;;;;;;;;34.40;50.09;100564.09;4980239;27;69342;-39
2022/02/18 09:05:19;;;;;;;;;;;;;;;34.44;50.17;100572.59;4964825;27;66261;-39
2022/02/18 09:07:49;;;;;;;;;;;;;;;34.43;50.28;100565.47;4978311;28;70425;-40
2022/02/18 09:10:19;;;;;;;;;;;;;;;34.47;50.06;100574.81;4975985;28;66517;-39
2022/02/18 09:12:49;;;;;;;;;;;;;;;34.49;50.15;100572.63;4967308;28;70024;-39
2022/02/18 09:15:19;;;;;;;;;;;;;;;34.51;49.98;100573.22;4973299;28;66298;-39
2022/02/18 09:18:19;;;;;;;;;;;;;;;34.54;49.91;100574.59;4979328;28;70463;-39
2022/02/18 09:20:49;;;;;;;;;;;;;;;34.55;50.00;100563.47;4973045;28;65337;-39
2022/02/18 09:23:19;;;;;;;;;;;;;;;34.58;49.93;100562.19;4978942;27;71176;-39
2022/02/18 09:25:49;;;;;;;;;;;;;;;34.61;49.95;100575.28;4983935;28;65826;-39
2022/02/18 09:28:18;;;;;;;;;;;;;;;34.62;49.65;100580.47;4986754;28;69889;-38
2022/02/18 09:30:51;;;;;;;;;;;;;;;34.63;50.01;100587.59;4976876;27;66274;-39
2022/02/18 09:33:22;;;;;;;;;;;;;;;34.63;49.95;100573.97;4957432;28;70057;-39
2022/02/18 09:35:51;;;;;;;;;;;;;;;34.65;49.79;100574.50;4974271;28;66753;-39
2022/02/18 09:38:21;;;;;;;;;;;;;;;34.65;49.69;100574.50;4976547;28;70182;-39
2022/02/18 09:40:51;;;;;;;;;;;;;;;34.64;50.08;100575.59;4964303;28;66671;-39
2022/02/18 09:43:22;;;;;;;;;;;;;;;34.65;50.10;100574.50;4968735;28;69059;-39
2022/02/18 09:45:52;;;;;;;;;;;;;;;34.64;50.12;100589.22;4970144;28;65171;-39
2022/02/18 09:48:23;;;;;;;;;;;;;;;34.65;50.10;100579.13;4942102;28;69094;-39
2022/02/18 09:50:52;;;;;;;;;;;;;;;34.63;50.01;100587.59;4973037;28;66755;-39
2022/02/18 09:53:22;;;;;;;;;;;;;;;34.63;49.99;100581.28;4972969;28;70118;-39
2022/02/18 09:55:54;;;;;;;;;;;;;;;34.63;49.89;100594.91;4979209;27;67126;-38
2022/02/18 09:58:25;;;;;;;;;;;;;;;34.63;49.79;100592.19;4977233;28;70548;-40
2022/02/18 10:00:57;;;;;;;;;;;;;;;34.60;49.85;100598.97;4974703;28;66727;-38
2022/02/18 10:03:27;;;;;;;;;;;;;;;34.59;50.09;100591.88;4977678;28;69515;-38
2022/02/18 10:05:57;;;;;;;;;;;;;;;34.58;50.27;100595.69;4977674;28;66550;-41
2022/02/18 10:08:28;;;;;;;;;;;;;;;34.57;50.04;100591.28;4974593;28;70196;-39
2022/02/18 10:11:03;;;;;;;;;;;;;;;34.56;50.18;100591.56;4976063;28;67763;-39
2022/02/18 10:13:36;;;;;;;;;;;;;;;34.55;50.18;100601.59;4976265;28;70046;-39
2022/02/18 10:16:17;;;;;;;;;;;;;;;34.54;50.08;100607.28;4965476;28;65737;-38
2022/02/18 10:18:57;;;;;;;;;;;;;;;34.53;50.14;100611.09;4989755;27;70435;-39
2022/02/18 10:21:28;;;;;;;;;;;;;;;34.51;50.12;100618.69;4976127;28;65500;-39
2022/02/18 10:24:15;;;;;;;;;;;;;;;34.50;50.61;100617.88;4977099;28;70080;-40
2022/02/18 10:26:53;;;;;;;;;;;;;;;34.48;50.45;100617.28;4975735;28;65163;-39
2022/02/18 10:29:36;;;;;;;;;;;;;;;34.46;50.55;100619.44;4962276;28;70351;-40
2022/02/18 10:32:11;;;;;;;;;;;;;;;34.45;50.67;100625.97;4988997;28;65718;-39
2022/02/18 10:35:01;;;;;;;;;;;;;;;34.42;50.45;100624.56;4964195;28;70383;-39
2022/02/18 10:37:31;;;;;;;;;;;;;;;34.41;50.54;100627.56;4962037;28;66518;-39
2022/02/18 10:40:10;;;;;;;;;;;;;;;34.37;50.61;100627.22;4989545;28;69477;-39
2022/02/18 10:42:40;;;;;;;;;;;;;;;34.37;50.68;100631.84;4976178;28;65957;-38
2022/02/18 10:45:11;;;;;;;;;;;;;;;34.35;50.89;100644.88;4998340;28;69651;-39
2022/02/18 10:47:42;;;;;;;;;;;;;;;34.32;50.70;100639.94;4986246;27;66606;-39
2022/02/18 10:50:22;;;;;;;;;;;;;;;34.31;50.82;100649.19;4975980;28;70481;-39
2022/02/18 10:53:10;;;;;;;;;;;;;;;34.26;50.79;100650.75;4976805;28;67003;-40
2022/02/18 10:55:56;;;;;;;;;;;;;;;34.23;50.93;100653.16;4964714;28;70590;-39
2022/02/18 10:58:30;;;;;;;;;;;;;;;34.20;50.88;100659.91;4980696;28;66131;-40
2022/02/18 11:01:03;;;;;;;;;;;;;;;34.18;50.87;100662.03;4977869;28;69659;-40
2022/02/18 11:03:34;;;;;;;;;;;;;;;34.16;50.89;100657.94;4984104;28;67015;-40
2022/02/18 11:06:13;;;;;;;;;;;;;;;34.13;51.05;100659.28;5005633;28;69087;-40
2022/02/18 11:09:05;;;;;;;;;;;;;;;34.11;50.71;100661.41;4998784;28;66720;-40
2022/02/18 11:11:36;;;;;;;;;;;;;;;34.08;51.18;100664.63;4977287;28;70262;-40
2022/02/18 11:14:07;;;;;;;;;;;;;;;34.05;51.09;100676.00;4980100;27;66075;-40
2022/02/18 11:16:39;;;;;;;;;;;;;;;34.05;51.24;100678.72;4966289;28;69014;-42
2022/02/18 11:19:09;;;;;;;;;;;;;;;34.02;50.93;100680.00;4977925;28;66833;-40
2022/02/18 11:22:01;;;;;;;;;;;;;;;34.01;51.04;100688.41;4979231;28;70368;-41
2022/02/18 11:24:31;;;;;;;;;;;;;;;33.98;51.08;100687.00;4963585;28;66333;-40
2022/02/18 11:27:03;;;;;;;;;;;;;;;33.95;51.32;100694.84;4978204;28;70704;-40
2022/02/18 11:29:36;;;;;;;;;;;;;;;33.95;51.55;100692.94;4979022;27;66653;-41
2022/02/18 11:32:14;;;;;;;;;;;;;;;33.92;51.72;100687.19;4980091;28;70601;-39
2022/02/18 11:34:50;;;;;;;;;;;;;;;33.89;51.55;100699.38;4991741;27;66278;-40
2022/02/18 11:37:38;;;;;;;;;;;;;;;33.88;51.61;100705.91;4977871;28;69971;-41
2022/02/18 11:40:26;;;;;;;;;;;;;;;33.86;52.03;100707.22;4962829;28;65365;-40
2022/02/18 11:43:00;;;;;;;;;;;;;;;33.83;52.02;100715.88;4993893;28;69881;-40
2022/02/18 11:45:43;;;;;;;;;;;;;;;33.80;52.15;100715.28;4991397;27;66584;-39
2022/02/18 11:48:33;;;;;;;;;;;;;;;33.76;51.90;100722.25;4998278;27;69360;-43
2022/02/18 11:51:06;;;;;;;;;;;;;;;33.72;51.03;100729.28;4988442;27;66241;-41
2022/02/18 11:53:39;;;;;;;;;;;;;;;33.63;51.94;100733.47;4977635;28;70522;-42
2022/02/18 11:56:09;;;;;;;;;;;;;;;33.47;51.98;100736.91;4978943;28;65786;-43
2022/02/18 11:58:49;;;;;;;;;;;;;;;33.28;52.15;100744.41;4976193;28;69795;-41
2022/02/18 12:01:19;;;;;;;;;;;;;;;33.13;52.34;100745.75;4976366;28;66501;-40
2022/02/18 12:04:08;;;;;;;;;;;;;;;33.05;53.17;100745.28;4976523;28;70012;-40
2022/02/18 12:06:38;;;;;;;;;;;;;;;32.91;53.45;100761.81;4956892;28;64376;-43
2022/02/18 12:09:08;;;;;;;;;;;;;;;32.81;53.39;100758.03;4977288;27;70659;-41
2022/02/18 12:11:45;;;;;;;;;;;;;;;32.73;53.90;100764.63;4976164;28;65803;-48
2022/02/18 12:14:14;;;;;;;;;;;;;;;32.69;53.86;100768.88;4978027;28;69446;-44
2022/02/18 12:16:45;;;;;;;;;;;;;;;32.64;53.91;100776.91;4974616;28;66756;-42
2022/02/18 12:19:24;;;;;;;;;;;;;;;32.59;53.72;100791.19;4978577;28;69989;-41
2022/02/18 12:22:02;;;;;;;;;;;;;;;32.55;54.08;100795.44;4979779;28;66483;-40
2022/02/18 12:24:31;;;;;;;;;;;;;;;32.52;53.76;100805.94;4992892;28;70896;-42
2022/02/18 12:27:21;;;;;;;;;;;;;;;32.46;53.64;100810.44;4980157;28;66470;-41
2022/02/18 12:30:00;;;;;;;;;;;;;;;32.40;53.39;100820.28;4979988;28;69293;-41
2022/02/18 12:32:30;;;;;;;;;;;;;;;32.33;53.31;100816.84;4978189;28;65111;-42
2022/02/18 12:35:03;;;;;;;;;;;;;;;32.33;53.26;100819.56;4978049;28;68185;-41
2022/02/18 12:37:36;;;;;;;;;;;;;;;32.30;53.17;100825.44;4980035;28;65252;-42
2022/02/18 12:40:14;;;;;;;;;;;;;;;32.25;53.79;100828.03;4979913;28;70297;-42
2022/02/18 12:42:56;;;;;;;;;;;;;;;32.22;53.63;100839.34;4992607;28;66040;-41
2022/02/18 12:45:35;;;;;;;;;;;;;;;32.20;53.85;100833.31;4911368;28;70238;-42
2022/02/18 12:48:05;;;;;;;;;;;;;;;32.18;54.28;100840.84;4991887;28;65549;-42
2022/02/18 12:50:38;;;;;;;;;;;;;;;32.16;54.35;100843.00;4996945;27;68945;-41
2022/02/18 12:53:10;;;;;;;;;;;;;;;32.16;54.88;100851.94;4975875;28;65738;-42
2022/02/18 12:55:43;;;;;;;;;;;;;;;32.15;55.33;100854.88;4972152;28;70065;-42
2022/02/18 12:58:15;;;;;;;;;;;;;;;32.12;55.17;100861.59;4974988;28;67673;-43
2022/02/18 13:00:44;;;;;;;;;;;;;;;32.09;55.05;100866.66;4974456;28;69959;-43
2022/02/18 13:03:15;;;;;;;;;;;;;;;32.07;55.25;100874.19;4975970;28;64101;-42
2022/02/18 13:05:45;;;;;;;;;;;;;;;31.99;55.16;100862.63;4973619;28;69481;-41